WAT436 ESGG-ESPA
Flight info
| Callsign | WAT436 |
|---|---|
| Flight time | N/A |
| Altitude | 25000 |
| Route | NEGIL M852 RISEM |
| Aircraft | DH8D/M-SDE2E3FGRY/H |
Departure
| Time | N/A |
|---|---|
| Airport | Göteborg Landvetter Airport (ESGG) |
Arrival
| Time | 2026-04-14 21:29 |
|---|---|
| Airport | Luleå Airport (ESPA) |
| Time | Latitude | Longitude | Altitude | Speed | Heading |
|---|---|---|---|---|---|
| 2026-04-14 20:11 | 59.95660 | 14.34318 | 25304 ft | 351 kts | 30° |
| 2026-04-14 20:11 | 59.97811 | 14.36612 | 25310 ft | 350 kts | 31° |
| 2026-04-14 20:11 | 59.99945 | 14.38891 | 25294 ft | 351 kts | 31° |
| 2026-04-14 20:12 | 60.02087 | 14.41183 | 25291 ft | 351 kts | 30° |
| 2026-04-14 20:12 | 60.04257 | 14.43509 | 25292 ft | 351 kts | 30° |
| 2026-04-14 20:12 | 60.06392 | 14.45799 | 25309 ft | 351 kts | 30° |
| 2026-04-14 20:12 | 60.08550 | 14.48119 | 25310 ft | 351 kts | 30° |
| 2026-04-14 20:13 | 60.10680 | 14.50412 | 25313 ft | 351 kts | 30° |
| 2026-04-14 20:13 | 60.12811 | 14.52709 | 25321 ft | 350 kts | 30° |
| 2026-04-14 20:13 | 60.14969 | 14.55038 | 25316 ft | 350 kts | 30° |
| 2026-04-14 20:13 | 60.17128 | 14.57371 | 25318 ft | 350 kts | 30° |
| 2026-04-14 20:14 | 60.19252 | 14.59671 | 25314 ft | 349 kts | 30° |
| 2026-04-14 20:14 | 60.21407 | 14.62010 | 25315 ft | 349 kts | 30° |
| 2026-04-14 20:14 | 60.23531 | 14.64337 | 25314 ft | 349 kts | 30° |
| 2026-04-14 20:14 | 60.25658 | 14.66656 | 25317 ft | 349 kts | 31° |
| 2026-04-14 20:15 | 60.27787 | 14.68968 | 25320 ft | 349 kts | 31° |
| 2026-04-14 20:15 | 60.29933 | 14.71304 | 25308 ft | 349 kts | 30° |
| 2026-04-14 20:15 | 60.32055 | 14.73619 | 25330 ft | 349 kts | 30° |
| 2026-04-14 20:15 | 60.34216 | 14.75980 | 25331 ft | 349 kts | 31° |
| 2026-04-14 20:16 | 60.36346 | 14.78312 | 25315 ft | 350 kts | 30° |
| 2026-04-14 20:16 | 60.38464 | 14.80635 | 25323 ft | 349 kts | 30° |
| 2026-04-14 20:16 | 60.40620 | 14.83003 | 25336 ft | 349 kts | 30° |
| 2026-04-14 20:16 | 60.42746 | 14.85342 | 25338 ft | 350 kts | 30° |
| 2026-04-14 20:17 | 60.44866 | 14.87678 | 25338 ft | 350 kts | 30° |
| 2026-04-14 20:17 | 60.47001 | 14.90036 | 25343 ft | 350 kts | 30° |
| 2026-04-14 20:17 | 60.49090 | 14.92345 | 25341 ft | 349 kts | 30° |
| 2026-04-14 20:17 | 60.51281 | 14.94771 | 25336 ft | 349 kts | 30° |
| 2026-04-14 20:18 | 60.53389 | 14.97108 | 25344 ft | 349 kts | 30° |
| 2026-04-14 20:18 | 60.55537 | 14.99494 | 25345 ft | 349 kts | 30° |
| 2026-04-14 20:18 | 60.57665 | 15.01861 | 25338 ft | 348 kts | 30° |
| 2026-04-14 20:18 | 60.59767 | 15.04203 | 25340 ft | 349 kts | 30° |
| 2026-04-14 20:19 | 60.61896 | 15.06578 | 25336 ft | 349 kts | 30° |
| 2026-04-14 20:19 | 60.64029 | 15.08961 | 25339 ft | 348 kts | 30° |
| 2026-04-14 20:19 | 60.66144 | 15.11324 | 25336 ft | 348 kts | 30° |
| 2026-04-14 20:19 | 60.68261 | 15.13698 | 25328 ft | 348 kts | 31° |
| 2026-04-14 20:20 | 60.70371 | 15.16073 | 25334 ft | 348 kts | 30° |
| 2026-04-14 20:20 | 60.72493 | 15.18455 | 25336 ft | 347 kts | 29° |
| 2026-04-14 20:20 | 60.74588 | 15.20816 | 25324 ft | 347 kts | 30° |
| 2026-04-14 20:20 | 60.76716 | 15.23208 | 25378 ft | 345 kts | 30° |
| 2026-04-14 20:21 | 60.78807 | 15.25577 | 25343 ft | 345 kts | 28° |
| 2026-04-14 20:21 | 60.80907 | 15.27948 | 25303 ft | 347 kts | 29° |
| 2026-04-14 20:21 | 60.82963 | 15.30278 | 25387 ft | 344 kts | 28° |
| 2026-04-14 20:21 | 60.85117 | 15.32725 | 25367 ft | 344 kts | 29° |
| 2026-04-14 20:22 | 60.87197 | 15.35088 | 25372 ft | 344 kts | 29° |
| 2026-04-14 20:22 | 60.89287 | 15.37466 | 25378 ft | 344 kts | 29° |
| 2026-04-14 20:22 | 60.91367 | 15.39834 | 25365 ft | 344 kts | 28° |
| 2026-04-14 20:22 | 60.93438 | 15.42196 | 25384 ft | 343 kts | 29° |
| 2026-04-14 20:23 | 60.95525 | 15.44585 | 25378 ft | 344 kts | 29° |
| 2026-04-14 20:23 | 60.97623 | 15.46983 | 25392 ft | 343 kts | 30° |
| 2026-04-14 20:23 | 60.99683 | 15.49350 | 25378 ft | 344 kts | 29° |
| 2026-04-14 20:23 | 61.01777 | 15.51752 | 25374 ft | 344 kts | 29° |
| 2026-04-14 20:24 | 61.03856 | 15.54144 | 25370 ft | 345 kts | 29° |
| 2026-04-14 20:24 | 61.05958 | 15.56565 | 25367 ft | 345 kts | 29° |
| 2026-04-14 20:24 | 61.08045 | 15.58973 | 25365 ft | 345 kts | 29° |
| 2026-04-14 20:24 | 61.10140 | 15.61394 | 25374 ft | 345 kts | 28° |
| 2026-04-14 20:25 | 61.12236 | 15.63818 | 25375 ft | 345 kts | 28° |
| 2026-04-14 20:25 | 61.14308 | 15.66220 | 25372 ft | 344 kts | 29° |
| 2026-04-14 20:25 | 61.16402 | 15.68649 | 25372 ft | 345 kts | 29° |
| 2026-04-14 20:25 | 61.18511 | 15.71101 | 25372 ft | 345 kts | 30° |
| 2026-04-14 20:26 | 61.20586 | 15.73516 | 25372 ft | 345 kts | 30° |
| 2026-04-14 20:26 | 61.22670 | 15.75946 | 25377 ft | 345 kts | 30° |
| 2026-04-14 20:26 | 61.24762 | 15.78389 | 25374 ft | 345 kts | 30° |
| 2026-04-14 20:26 | 61.26847 | 15.80828 | 25377 ft | 345 kts | 30° |
| 2026-04-14 20:27 | 61.28947 | 15.83288 | 25379 ft | 345 kts | 29° |
| 2026-04-14 20:27 | 61.31021 | 15.85721 | 25376 ft | 345 kts | 30° |
| 2026-04-14 20:27 | 61.33123 | 15.88191 | 25379 ft | 345 kts | 30° |
| 2026-04-14 20:27 | 61.35210 | 15.90648 | 25380 ft | 343 kts | 29° |
| 2026-04-14 20:28 | 61.37277 | 15.93083 | 25379 ft | 342 kts | 29° |
| 2026-04-14 20:28 | 61.39338 | 15.95517 | 25376 ft | 342 kts | 29° |
| 2026-04-14 20:28 | 61.41404 | 15.97959 | 25377 ft | 342 kts | 29° |
| 2026-04-14 20:28 | 61.43489 | 16.00428 | 25377 ft | 342 kts | 29° |
| 2026-04-14 20:29 | 61.45533 | 16.02851 | 25381 ft | 342 kts | 29° |
| 2026-04-14 20:29 | 61.47612 | 16.05320 | 25392 ft | 342 kts | 29° |
| 2026-04-14 20:29 | 61.49674 | 16.07773 | 25420 ft | 341 kts | 29° |
| 2026-04-14 20:29 | 61.51736 | 16.10230 | 25396 ft | 340 kts | 29° |
| 2026-04-14 20:30 | 61.53778 | 16.12666 | 25380 ft | 341 kts | 29° |
| 2026-04-14 20:30 | 61.55841 | 16.15131 | 25407 ft | 341 kts | 29° |
| 2026-04-14 20:30 | 61.57912 | 16.17610 | 25399 ft | 340 kts | 29° |
| 2026-04-14 20:30 | 61.59961 | 16.20066 | 25408 ft | 340 kts | 29° |
| 2026-04-14 20:31 | 61.62009 | 16.22527 | 25385 ft | 340 kts | 29° |
| 2026-04-14 20:31 | 61.64048 | 16.24979 | 25403 ft | 340 kts | 29° |
| 2026-04-14 20:31 | 61.66088 | 16.27435 | 25415 ft | 339 kts | 29° |
| 2026-04-14 20:31 | 61.68162 | 16.29938 | 25412 ft | 339 kts | 29° |
| 2026-04-14 20:32 | 61.70182 | 16.32378 | 25395 ft | 338 kts | 29° |
| 2026-04-14 20:32 | 61.72243 | 16.34871 | 25399 ft | 338 kts | 29° |
| 2026-04-14 20:32 | 61.74278 | 16.37336 | 25419 ft | 337 kts | 29° |
| 2026-04-14 20:32 | 61.76309 | 16.39801 | 25411 ft | 337 kts | 29° |
| 2026-04-14 20:33 | 61.78345 | 16.42276 | 25402 ft | 337 kts | 29° |
| 2026-04-14 20:33 | 61.80354 | 16.44721 | 25400 ft | 337 kts | 29° |
| 2026-04-14 20:33 | 61.82400 | 16.47216 | 25401 ft | 336 kts | 29° |
| 2026-04-14 20:34 | 61.86439 | 16.52151 | 25406 ft | 336 kts | 30° |
| 2026-04-14 20:34 | 61.88464 | 16.54630 | 25416 ft | 335 kts | 30° |
| 2026-04-14 20:34 | 61.90465 | 16.57085 | 25415 ft | 335 kts | 30° |
| 2026-04-14 20:34 | 61.92467 | 16.59545 | 25396 ft | 335 kts | 30° |
| 2026-04-14 20:35 | 61.94494 | 16.62040 | 25397 ft | 334 kts | 29° |
| 2026-04-14 20:35 | 61.96491 | 16.64501 | 25418 ft | 334 kts | 30° |
| 2026-04-14 20:35 | 61.98509 | 16.66992 | 25425 ft | 334 kts | 31° |
| 2026-04-14 20:35 | 62.00509 | 16.69464 | 25431 ft | 334 kts | 31° |
| 2026-04-14 20:36 | 62.02516 | 16.71950 | 25428 ft | 334 kts | 31° |
| 2026-04-14 20:36 | 62.04517 | 16.74430 | 25433 ft | 333 kts | 31° |
| 2026-04-14 20:36 | 62.06541 | 16.76945 | 25431 ft | 334 kts | 31° |
| 2026-04-14 20:36 | 62.08534 | 16.79424 | 25443 ft | 334 kts | 31° |
| 2026-04-14 20:37 | 62.10532 | 16.81914 | 25432 ft | 333 kts | 31° |
| 2026-04-14 20:37 | 62.12528 | 16.84467 | 25421 ft | 333 kts | 32° |
| 2026-04-14 20:37 | 62.14494 | 16.87013 | 25445 ft | 333 kts | 32° |
| 2026-04-14 20:37 | 62.16458 | 16.89559 | 25439 ft | 333 kts | 32° |
| 2026-04-14 20:38 | 62.18445 | 16.92139 | 25441 ft | 333 kts | 32° |
| 2026-04-14 20:38 | 62.20434 | 16.94723 | 25445 ft | 333 kts | 32° |
| 2026-04-14 20:38 | 62.22385 | 16.97260 | 25446 ft | 333 kts | 32° |
| 2026-04-14 20:38 | 62.24379 | 16.99856 | 25458 ft | 333 kts | 32° |
| 2026-04-14 20:39 | 62.26354 | 17.02432 | 25449 ft | 333 kts | 32° |
| 2026-04-14 20:39 | 62.28323 | 17.05001 | 25427 ft | 333 kts | 33° |
| 2026-04-14 20:39 | 62.30304 | 17.07590 | 25461 ft | 332 kts | 33° |
| 2026-04-14 20:39 | 62.32270 | 17.10164 | 25471 ft | 331 kts | 32° |
| 2026-04-14 20:40 | 62.34217 | 17.12717 | 25467 ft | 331 kts | 33° |
| 2026-04-14 20:40 | 62.36198 | 17.15318 | 25488 ft | 331 kts | 32° |
| 2026-04-14 20:40 | 62.38153 | 17.17890 | 25510 ft | 332 kts | 33° |
| 2026-04-14 20:40 | 62.40128 | 17.20493 | 25463 ft | 332 kts | 33° |
| 2026-04-14 20:41 | 62.42091 | 17.23082 | 25470 ft | 332 kts | 33° |
| 2026-04-14 20:41 | 62.44048 | 17.25668 | 25493 ft | 331 kts | 33° |
| 2026-04-14 20:41 | 62.46019 | 17.28275 | 25502 ft | 331 kts | 33° |
| 2026-04-14 20:41 | 62.47988 | 17.30885 | 25476 ft | 331 kts | 33° |
| 2026-04-14 20:42 | 62.49936 | 17.33470 | 25490 ft | 331 kts | 33° |
| 2026-04-14 20:42 | 62.51889 | 17.36066 | 25478 ft | 331 kts | 33° |
| 2026-04-14 20:42 | 62.55828 | 17.41316 | 25482 ft | 331 kts | 33° |
| 2026-04-14 20:43 | 62.57762 | 17.43900 | 25503 ft | 330 kts | 33° |
| 2026-04-14 20:43 | 62.59723 | 17.46523 | 25479 ft | 331 kts | 33° |
| 2026-04-14 20:43 | 62.61692 | 17.49161 | 25471 ft | 330 kts | 33° |
| 2026-04-14 20:43 | 62.63648 | 17.51786 | 25482 ft | 330 kts | 33° |
| 2026-04-14 20:44 | 62.65577 | 17.54378 | 25481 ft | 329 kts | 34° |
| 2026-04-14 20:44 | 62.67540 | 17.57020 | 25480 ft | 329 kts | 34° |
| 2026-04-14 20:44 | 62.69485 | 17.59643 | 25501 ft | 329 kts | 33° |
| 2026-04-14 20:44 | 62.71424 | 17.62262 | 25502 ft | 330 kts | 33° |
| 2026-04-14 20:45 | 62.73363 | 17.64886 | 25483 ft | 331 kts | 33° |
| 2026-04-14 20:45 | 62.75322 | 17.67538 | 25460 ft | 330 kts | 34° |
| 2026-04-14 20:45 | 62.77243 | 17.70145 | 25471 ft | 330 kts | 35° |
| 2026-04-14 20:45 | 62.79197 | 17.72801 | 25465 ft | 330 kts | 34° |
| 2026-04-14 20:46 | 62.81153 | 17.75462 | 25454 ft | 330 kts | 35° |
| 2026-04-14 20:46 | 62.83093 | 17.78107 | 25474 ft | 329 kts | 35° |
| 2026-04-14 20:46 | 62.85033 | 17.80756 | 25469 ft | 330 kts | 34° |
| 2026-04-14 20:46 | 62.86968 | 17.83402 | 25449 ft | 329 kts | 35° |
| 2026-04-14 20:47 | 62.88898 | 17.86046 | 25451 ft | 329 kts | 35° |
| 2026-04-14 20:47 | 62.90826 | 17.88690 | 25475 ft | 328 kts | 35° |
| 2026-04-14 20:47 | 62.92763 | 17.91352 | 25466 ft | 329 kts | 34° |
| 2026-04-14 20:47 | 62.94637 | 17.93930 | 25464 ft | 328 kts | 34° |
| 2026-04-14 20:48 | 62.96609 | 17.96649 | 25478 ft | 328 kts | 35° |
| 2026-04-14 20:48 | 62.98540 | 17.99315 | 25481 ft | 327 kts | 35° |
| 2026-04-14 20:48 | 63.00474 | 18.01989 | 25487 ft | 327 kts | 35° |
| 2026-04-14 20:48 | 63.02421 | 18.04584 | 25487 ft | 328 kts | 33° |
| 2026-04-14 20:49 | 63.04380 | 18.07106 | 25476 ft | 329 kts | 33° |
| 2026-04-14 20:49 | 63.06337 | 18.09628 | 25482 ft | 328 kts | 33° |
| 2026-04-14 20:49 | 63.08300 | 18.12165 | 25482 ft | 329 kts | 33° |
| 2026-04-14 20:49 | 63.10251 | 18.14695 | 25476 ft | 329 kts | 33° |
| 2026-04-14 20:50 | 63.12250 | 18.17292 | 25483 ft | 328 kts | 33° |
| 2026-04-14 20:50 | 63.14198 | 18.19829 | 25472 ft | 328 kts | 33° |
| 2026-04-14 20:50 | 63.16171 | 18.22407 | 25494 ft | 329 kts | 33° |
| 2026-04-14 20:50 | 63.18119 | 18.24956 | 25477 ft | 329 kts | 33° |
| 2026-04-14 20:51 | 63.20077 | 18.27523 | 25477 ft | 328 kts | 33° |
| 2026-04-14 20:51 | 63.22039 | 18.30099 | 25495 ft | 328 kts | 33° |
| 2026-04-14 20:51 | 63.24005 | 18.32686 | 25479 ft | 329 kts | 33° |
| 2026-04-14 20:51 | 63.25937 | 18.35232 | 25479 ft | 329 kts | 33° |
| 2026-04-14 20:52 | 63.27908 | 18.37833 | 25480 ft | 327 kts | 33° |
| 2026-04-14 20:52 | 63.29881 | 18.40441 | 25481 ft | 327 kts | 33° |
| 2026-04-14 20:52 | 63.31810 | 18.42998 | 25472 ft | 328 kts | 33° |
| 2026-04-14 20:52 | 63.33758 | 18.45582 | 25468 ft | 328 kts | 33° |
| 2026-04-14 20:53 | 63.35722 | 18.48192 | 25463 ft | 328 kts | 33° |
| 2026-04-14 20:53 | 63.37664 | 18.50776 | 25472 ft | 329 kts | 33° |
| 2026-04-14 20:53 | 63.39633 | 18.53401 | 25456 ft | 329 kts | 33° |
| 2026-04-14 20:53 | 63.41586 | 18.56008 | 25472 ft | 328 kts | 33° |
| 2026-04-14 20:54 | 63.43562 | 18.58651 | 25470 ft | 328 kts | 33° |
| 2026-04-14 20:54 | 63.45509 | 18.61259 | 25483 ft | 327 kts | 33° |
| 2026-04-14 20:54 | 63.47448 | 18.63861 | 25469 ft | 327 kts | 33° |
| 2026-04-14 20:54 | 63.49402 | 18.66486 | 25475 ft | 328 kts | 34° |
| 2026-04-14 20:55 | 63.51338 | 18.69093 | 25481 ft | 328 kts | 34° |
| 2026-04-14 20:55 | 63.53310 | 18.71752 | 25469 ft | 328 kts | 34° |
| 2026-04-14 20:55 | 63.55250 | 18.74373 | 25461 ft | 328 kts | 34° |
| 2026-04-14 20:55 | 63.57205 | 18.77016 | 25478 ft | 328 kts | 33° |
| 2026-04-14 20:56 | 63.59155 | 18.79658 | 25468 ft | 327 kts | 34° |
| 2026-04-14 20:56 | 63.61089 | 18.82281 | 25462 ft | 327 kts | 34° |
| 2026-04-14 20:56 | 63.63033 | 18.84924 | 25460 ft | 327 kts | 34° |
| 2026-04-14 20:56 | 63.64970 | 18.87561 | 25448 ft | 327 kts | 34° |
| 2026-04-14 20:57 | 63.66911 | 18.90208 | 25448 ft | 327 kts | 34° |
| 2026-04-14 20:57 | 63.68840 | 18.92844 | 25451 ft | 326 kts | 34° |
| 2026-04-14 20:57 | 63.70779 | 18.95495 | 25459 ft | 326 kts | 34° |
| 2026-04-14 20:57 | 63.72702 | 18.98131 | 25466 ft | 327 kts | 33° |
| 2026-04-14 20:58 | 63.74639 | 19.00790 | 25461 ft | 326 kts | 33° |
| 2026-04-14 20:58 | 63.76568 | 19.03439 | 25462 ft | 326 kts | 33° |
| 2026-04-14 20:58 | 63.78503 | 19.06105 | 25477 ft | 326 kts | 34° |
| 2026-04-14 20:58 | 63.80429 | 19.08760 | 25467 ft | 325 kts | 34° |
| 2026-04-14 20:59 | 63.82335 | 19.11413 | 25473 ft | 325 kts | 34° |
| 2026-04-14 20:59 | 63.84251 | 19.14165 | 25467 ft | 324 kts | 35° |
| 2026-04-14 20:59 | 63.86136 | 19.16890 | 25467 ft | 324 kts | 35° |
| 2026-04-14 20:59 | 63.88050 | 19.19660 | 25465 ft | 324 kts | 35° |
| 2026-04-14 21:00 | 63.89934 | 19.22387 | 25463 ft | 324 kts | 35° |
| 2026-04-14 21:00 | 63.91829 | 19.25134 | 25462 ft | 324 kts | 34° |
| 2026-04-14 21:00 | 63.93729 | 19.27893 | 25464 ft | 324 kts | 34° |
| 2026-04-14 21:00 | 63.95629 | 19.30647 | 25470 ft | 324 kts | 34° |
| 2026-04-14 21:01 | 63.97522 | 19.33392 | 25464 ft | 324 kts | 34° |
| 2026-04-14 21:01 | 63.99397 | 19.36115 | 25472 ft | 323 kts | 34° |
| 2026-04-14 21:01 | 64.01290 | 19.38869 | 25475 ft | 324 kts | 34° |
| 2026-04-14 21:01 | 64.03203 | 19.41656 | 25457 ft | 324 kts | 34° |
| 2026-04-14 21:02 | 64.05081 | 19.44397 | 25467 ft | 323 kts | 34° |
| 2026-04-14 21:02 | 64.06986 | 19.47181 | 25466 ft | 323 kts | 34° |
| 2026-04-14 21:02 | 64.08854 | 19.49918 | 25455 ft | 323 kts | 34° |
| 2026-04-14 21:02 | 64.10741 | 19.52685 | 25473 ft | 323 kts | 34° |
| 2026-04-14 21:03 | 64.12647 | 19.55486 | 25458 ft | 324 kts | 34° |
| 2026-04-14 21:03 | 64.14518 | 19.58239 | 25468 ft | 324 kts | 34° |
| 2026-04-14 21:03 | 64.16412 | 19.61029 | 25470 ft | 324 kts | 34° |
| 2026-04-14 21:03 | 64.18314 | 19.63838 | 25462 ft | 325 kts | 34° |
| 2026-04-14 21:04 | 64.20216 | 19.66651 | 25469 ft | 325 kts | 35° |
| 2026-04-14 21:04 | 64.22109 | 19.69453 | 25463 ft | 325 kts | 35° |
| 2026-04-14 21:04 | 64.23996 | 19.72252 | 25481 ft | 325 kts | 35° |
| 2026-04-14 21:04 | 64.25886 | 19.75061 | 25451 ft | 326 kts | 35° |
| 2026-04-14 21:05 | 64.27784 | 19.77887 | 25460 ft | 325 kts | 35° |
| 2026-04-14 21:05 | 64.29673 | 19.80703 | 25462 ft | 325 kts | 35° |
| 2026-04-14 21:05 | 64.31563 | 19.83525 | 25466 ft | 325 kts | 36° |
| 2026-04-14 21:05 | 64.33461 | 19.86366 | 25491 ft | 325 kts | 35° |
| 2026-04-14 21:06 | 64.35355 | 19.89206 | 25466 ft | 326 kts | 35° |
| 2026-04-14 21:06 | 64.37231 | 19.92025 | 25472 ft | 325 kts | 35° |
| 2026-04-14 21:06 | 64.39123 | 19.94871 | 25466 ft | 325 kts | 35° |
| 2026-04-14 21:06 | 64.41016 | 19.97726 | 25462 ft | 325 kts | 35° |
| 2026-04-14 21:07 | 64.42893 | 20.00559 | 25468 ft | 325 kts | 35° |
| 2026-04-14 21:07 | 64.44795 | 20.03434 | 25472 ft | 325 kts | 35° |
| 2026-04-14 21:07 | 64.46667 | 20.06271 | 25464 ft | 325 kts | 35° |
| 2026-04-14 21:07 | 64.48562 | 20.09145 | 25464 ft | 325 kts | 35° |
| 2026-04-14 21:08 | 64.50466 | 20.12039 | 25471 ft | 324 kts | 36° |
| 2026-04-14 21:08 | 64.52344 | 20.14897 | 25469 ft | 324 kts | 36° |
| 2026-04-14 21:08 | 64.54218 | 20.17755 | 25471 ft | 324 kts | 36° |
| 2026-04-14 21:08 | 64.56084 | 20.20606 | 25465 ft | 324 kts | 35° |
| 2026-04-14 21:09 | 64.57979 | 20.23504 | 25476 ft | 324 kts | 36° |
| 2026-04-14 21:09 | 64.59868 | 20.26399 | 25453 ft | 324 kts | 35° |
| 2026-04-14 21:09 | 64.61746 | 20.29281 | 25462 ft | 324 kts | 36° |
| 2026-04-14 21:09 | 64.63609 | 20.32146 | 25478 ft | 323 kts | 36° |
| 2026-04-14 21:10 | 64.65475 | 20.35022 | 25492 ft | 323 kts | 36° |
| 2026-04-14 21:10 | 64.67354 | 20.37921 | 25472 ft | 322 kts | 36° |
| 2026-04-14 21:10 | 64.69223 | 20.40810 | 25494 ft | 322 kts | 35° |
| 2026-04-14 21:10 | 64.71085 | 20.43693 | 25482 ft | 322 kts | 36° |
| 2026-04-14 21:11 | 64.72941 | 20.46570 | 25485 ft | 321 kts | 36° |
| 2026-04-14 21:11 | 64.74794 | 20.49448 | 25486 ft | 321 kts | 36° |
| 2026-04-14 21:11 | 64.76639 | 20.52318 | 25485 ft | 321 kts | 36° |
| 2026-04-14 21:11 | 64.78508 | 20.55232 | 25493 ft | 322 kts | 36° |
| 2026-04-14 21:12 | 64.79535 | 20.56835 | 25488 ft | 322 kts | 36° |
| 2026-04-14 21:12 | 64.81132 | 20.59331 | 25487 ft | 323 kts | 36° |
| 2026-04-14 21:12 | 64.82993 | 20.62242 | 25473 ft | 323 kts | 36° |
| 2026-04-14 21:12 | 64.84854 | 20.65159 | 25470 ft | 322 kts | 37° |
| 2026-04-14 21:13 | 64.86713 | 20.68077 | 25494 ft | 322 kts | 37° |
| 2026-04-14 21:13 | 64.88577 | 20.71014 | 24971 ft | 331 kts | 37° |
| 2026-04-14 21:13 | 64.90480 | 20.74010 | 24515 ft | 334 kts | 37° |
| 2026-04-14 21:14 | 64.94332 | 20.80079 | 23640 ft | 328 kts | 37° |
| 2026-04-14 21:14 | 64.96217 | 20.83057 | 23208 ft | 326 kts | 37° |
| 2026-04-14 21:14 | 64.98092 | 20.86026 | 22817 ft | 325 kts | 37° |
| 2026-04-14 21:14 | 64.99961 | 20.88993 | 22387 ft | 324 kts | 37° |
| 2026-04-14 21:15 | 65.01804 | 20.91924 | 21990 ft | 323 kts | 37° |
| 2026-04-14 21:15 | 65.03683 | 20.94920 | 21539 ft | 323 kts | 37° |
| 2026-04-14 21:15 | 65.05537 | 20.97877 | 21152 ft | 322 kts | 37° |
| 2026-04-14 21:15 | 65.07373 | 21.00815 | 20739 ft | 322 kts | 37° |
| 2026-04-14 21:16 | 65.09190 | 21.03725 | 20324 ft | 321 kts | 37° |
| 2026-04-14 21:16 | 65.11071 | 21.06743 | 19908 ft | 321 kts | 38° |
| 2026-04-14 21:16 | 65.12907 | 21.09696 | 19500 ft | 321 kts | 37° |
| 2026-04-14 21:16 | 65.14758 | 21.12676 | 19080 ft | 321 kts | 37° |
| 2026-04-14 21:17 | 65.16595 | 21.15641 | 18666 ft | 320 kts | 37° |
| 2026-04-14 21:17 | 65.18431 | 21.18607 | 18267 ft | 320 kts | 37° |
| 2026-04-14 21:17 | 65.20261 | 21.21571 | 17850 ft | 320 kts | 37° |
| 2026-04-14 21:17 | 65.22066 | 21.24734 | 17424 ft | 318 kts | 44° |
| 2026-04-14 21:18 | 65.23546 | 21.28493 | 17024 ft | 314 kts | 52° |
| 2026-04-14 21:18 | 65.24981 | 21.32446 | 16623 ft | 313 kts | 52° |
| 2026-04-14 21:18 | 65.26399 | 21.36364 | 16243 ft | 313 kts | 52° |
| 2026-04-14 21:18 | 65.27831 | 21.40326 | 15834 ft | 313 kts | 52° |
| 2026-04-14 21:19 | 65.29250 | 21.44251 | 15420 ft | 313 kts | 52° |
| 2026-04-14 21:19 | 65.30656 | 21.48137 | 15030 ft | 313 kts | 52° |
| 2026-04-14 21:19 | 65.32085 | 21.52088 | 14628 ft | 313 kts | 52° |
| 2026-04-14 21:19 | 65.33518 | 21.56057 | 14230 ft | 312 kts | 52° |
| 2026-04-14 21:20 | 65.34930 | 21.59969 | 13852 ft | 311 kts | 52° |
| 2026-04-14 21:20 | 65.36329 | 21.63851 | 13421 ft | 310 kts | 52° |
| 2026-04-14 21:20 | 65.37736 | 21.67762 | 13009 ft | 309 kts | 53° |
| 2026-04-14 21:20 | 65.39130 | 21.71637 | 12633 ft | 308 kts | 52° |
| 2026-04-14 21:21 | 65.40688 | 21.75219 | 11882 ft | 323 kts | 36° |
| 2026-04-14 21:21 | 65.42833 | 21.76722 | 11619 ft | 321 kts | 5° |
| 2026-04-14 21:21 | 65.44992 | 21.75582 | 11300 ft | 320 kts | 335° |
| 2026-04-14 21:21 | 65.46800 | 21.72616 | 10907 ft | 320 kts | 324° |
| 2026-04-14 21:22 | 65.48695 | 21.69908 | 10446 ft | 310 kts | 335° |
| 2026-04-14 21:22 | 65.50661 | 21.68062 | 10034 ft | 297 kts | 343° |
| 2026-04-14 21:22 | 65.52624 | 21.66926 | 9607 ft | 286 kts | 351° |
| 2026-04-14 21:22 | 65.54546 | 21.66420 | 9227 ft | 274 kts | 359° |
| 2026-04-14 21:23 | 65.56422 | 21.66455 | 8870 ft | 267 kts | 6° |
| 2026-04-14 21:23 | 65.58254 | 21.66983 | 8515 ft | 265 kts | 12° |
| 2026-04-14 21:23 | 65.60034 | 21.67961 | 8146 ft | 264 kts | 18° |
| 2026-04-14 21:23 | 65.61794 | 21.69394 | 7478 ft | 273 kts | 24° |
| 2026-04-14 21:24 | 65.63500 | 21.71286 | 6975 ft | 267 kts | 30° |
| 2026-04-14 21:24 | 65.65073 | 21.73499 | 6584 ft | 256 kts | 36° |
| 2026-04-14 21:24 | 65.66482 | 21.75985 | 6248 ft | 243 kts | 44° |
| 2026-04-14 21:24 | 65.67576 | 21.78902 | 5896 ft | 232 kts | 58° |
| 2026-04-14 21:25 | 65.68359 | 21.82314 | 5297 ft | 231 kts | 73° |
| 2026-04-14 21:25 | 65.68405 | 21.86100 | 4577 ft | 230 kts | 110° |
| 2026-04-14 21:25 | 65.67455 | 21.89101 | 3810 ft | 234 kts | 147° |
| 2026-04-14 21:25 | 65.65891 | 21.90069 | 3042 ft | 239 kts | 180° |
| 2026-04-14 21:26 | 65.64296 | 21.89778 | 2363 ft | 226 kts | 175° |
| 2026-04-14 21:26 | 65.62917 | 21.91244 | 2077 ft | 210 kts | 133° |
| 2026-04-14 21:26 | 65.62157 | 21.93972 | 1868 ft | 184 kts | 124° |
| 2026-04-14 21:26 | 65.61396 | 21.96219 | 1638 ft | 158 kts | 130° |
| 2026-04-14 21:27 | 65.60648 | 21.98013 | 1352 ft | 151 kts | 136° |
| 2026-04-14 21:27 | 65.59892 | 21.99765 | 1254 ft | 151 kts | 134° |
| 2026-04-14 21:27 | 65.59135 | 22.01493 | 910 ft | 145 kts | 136° |
| 2026-04-14 21:27 | 65.58413 | 22.03092 | 714 ft | 139 kts | 135° |
| 2026-04-14 21:28 | 65.57708 | 22.04736 | 611 ft | 140 kts | 136° |
| 2026-04-14 21:28 | 65.56985 | 22.06340 | 512 ft | 141 kts | 136° |
| 2026-04-14 21:28 | 65.56259 | 22.07946 | 351 ft | 144 kts | 136° |
| 2026-04-14 21:28 | 65.55508 | 22.09668 | 141 ft | 153 kts | 136° |
| 2026-04-14 21:29 | 65.54769 | 22.11311 | 52 ft | 116 kts | 136° |
| 2026-04-14 21:29 | 65.54314 | 22.12337 | 46 ft | 69 kts | 137° |
| 2026-04-14 21:29 | 65.54023 | 22.12992 | 46 ft | 38 kts | 140° |
| 2026-04-14 21:29 | 65.53941 | 22.13396 | 46 ft | 23 kts | 104° |
| 2026-04-14 21:30 | 65.53946 | 22.13602 | 46 ft | 3 kts | 48° |
| 2026-04-14 21:30 | 65.53948 | 22.13607 | 45 ft | 0 kts | 45° |
| 2026-04-14 21:30 | 65.53949 | 22.13608 | 45 ft | 0 kts | 45° |
| 2026-04-14 21:31 | 65.53969 | 22.13635 | 46 ft | 8 kts | 17° |
| 2026-04-14 21:31 | 65.54030 | 22.13588 | 45 ft | 15 kts | 318° |
| 2026-04-14 21:31 | 65.54132 | 22.13361 | 45 ft | 19 kts | 316° |
| 2026-04-14 21:31 | 65.54237 | 22.13127 | 44 ft | 26 kts | 317° |
| 2026-04-14 21:32 | 65.54373 | 22.12820 | 42 ft | 24 kts | 317° |
| 2026-04-14 21:32 | 65.54484 | 22.12578 | 42 ft | 19 kts | 317° |
| 2026-04-14 21:32 | 65.54576 | 22.12372 | 42 ft | 18 kts | 317° |
| 2026-04-14 21:32 | 65.54650 | 22.12224 | 42 ft | 10 kts | 343° |
| 2026-04-14 21:33 | 65.54712 | 22.12264 | 42 ft | 11 kts | 354° |
| 2026-04-14 21:33 | 65.54782 | 22.12210 | 42 ft | 10 kts | 319° |
| 2026-04-14 21:33 | 65.54821 | 22.12125 | 42 ft | 4 kts | 322° |
| 2026-04-14 21:33 | 65.54848 | 22.12126 | 42 ft | 3 kts | 49° |
| 2026-04-14 21:34 | 65.54857 | 22.12196 | 42 ft | 4 kts | 62° |
| 2026-04-14 21:34 | 65.54864 | 22.12217 | 42 ft | 0 kts | 47° |